Terminal Aerodrome Forecast
Issued by NWS Nashville, TN

Home | Current Version | Previous Version | Text Only | Print | Product List | Glossary On
Versions: 1 2 3 4 5 6 7 8 9 10 11 12 13 14 15 16 17 18
000
FTUS44 KOHX 221733
TAFBNA
TAF
KBNA 221733Z 2218/2318 07008KT P6SM SCT250
     FM230100 VRB02KT P6SM SCT120 BKN250
     FM231000 08004KT P6SM VCSH BKN080 OVC120=

USA.gov is the U.S. government's official web portal to all federal, state and local government web resources and services.